Latest Weather Observations for Dwellingup

IDW60801

Issued at 10:32 pm WST Saturday 29 August 2015 (issued every 30 minutes, with the page automatically refreshed every 10 minutes)

About weather observations | Map of weather stations | Latest weather observations for WA | Other Formats
Station Details ID: 009538 Name: DWELLINGUP Lat: -32.71 Lon: 116.06 Height: 267.0 m
Data from the previous 72 hours. | See also: Recent months at Dwellingup
Date/Time
WST
Temp
°C
App
Temp
°C
Dew
Point
Rel
Hum
%
Delta-T
°C
Wind Press
QNH
hPa
Press
MSL
hPa
Rain
since 9 am
mm
Dir
 
Spd
km/h
Gust
km/h
Spd
kts
Gust
kts
29/10:30pm 12.8 11.2 11.7 93 0.6 NW 11 17 6 9 1014.2 1014.4 16.4
29/10:00pm 12.7 11.4 11.4 92 0.7 WNW 9 17 5 9 1014.0 1014.1 16.4
29/09:30pm 13.0 10.7 11.9 93 0.6 W 15 30 8 16 1014.1 1014.3 16.2
29/09:00pm 13.7 12.0 12.6 93 0.6 W 13 19 7 10 1013.7 1013.8 12.8
29/08:30pm 13.8 12.1 12.5 92 0.7 W 13 22 7 12 1013.4 1013.5 12.0
29/08:00pm 13.8 13.4 12.5 92 0.7 NW 6 13 3 7 1013.1 1013.2 7.4
29/07:30pm 13.6 13.0 12.2 91 0.8 NNW 7 13 4 7 1013.1 1013.2 7.0
29/07:00pm 13.8 12.8 12.2 90 0.9 NW 9 15 5 8 1012.9 1013.0 7.0
29/06:30pm 14.0 11.7 11.9 87 1.1 WNW 15 32 8 17 1012.6 1012.7 7.0
29/06:00pm 15.4 14.4 12.2 81 1.8 NW 9 17 5 9 1012.2 1012.3 5.6
29/05:30pm 15.7 14.2 11.9 78 2.1 NW 11 24 6 13 1012.1 1012.2 5.6
29/05:00pm 16.4 13.4 11.8 74 2.5 WNW 19 32 10 17 1012.0 1012.1 5.6
29/04:30pm 16.6 14.4 12.2 75 2.4 WNW 15 30 8 16 1011.8 1011.9 5.6
29/04:00pm 16.4 13.7 11.8 74 2.5 WNW 17 35 9 19 1011.6 1011.8 5.6
29/03:30pm 16.9 13.2 11.6 71 2.9 WNW 22 44 12 24 1011.5 1011.7 5.6
29/03:00pm 17.2 14.1 13.5 79 2.1 WNW 22 39 12 21 1011.4 1011.6 5.6
29/02:30pm 16.8 12.6 13.5 81 1.9 NW 28 52 15 28 1011.4 1011.6 5.6
29/02:00pm 16.5 12.6 14.3 87 1.3 NW 28 48 15 26 1011.0 1011.2 5.6
29/01:49pm 16.4 12.6 14.6 89 1.0 NW 28 52 15 28 1010.9 1011.1 5.6
29/01:30pm 16.2 12.4 13.5 84 1.5 NNW 26 52 14 28 1010.9 1011.1 2.0
29/01:00pm 17.0 12.3 13.1 78 2.2 NNW 30 50 16 27 1011.0 1011.2 1.4
29/12:30pm 16.9 12.3 13.6 81 1.9 NNW 30 54 16 29 1011.5 1011.7 1.4
29/12:11pm 16.3 12.3 14.1 87 1.3 NNW 28 50 15 27 1011.9 1012.0 1.4
29/12:00pm 15.9 12.6 13.9 88 1.1 NNW 24 44 13 24 1012.2 1012.3 1.4
29/11:30am 15.7 12.1 13.0 84 1.5 N 24 39 13 21 1012.6 1012.7 0.8
29/11:00am 16.7 13.0 12.8 78 2.2 N 24 41 13 22 1012.5 1012.6 0.0
29/10:30am 16.6 13.8 13.1 80 2.0 N 20 33 11 18 1012.6 1012.7 0.0
29/10:00am 16.0 13.2 13.1 83 1.6 N 20 33 11 18 1013.0 1013.1 0.0
29/09:30am 15.7 13.5 13.2 85 1.4 N 17 32 9 17 1013.4 1013.5 0.0
29/09:00am 15.4 13.2 13.4 88 1.1 N 17 26 9 14 1013.6 1013.7 8.8
29/08:30am 15.3 13.3 13.8 91 0.9 N 17 30 9 16 1013.3 1013.4 8.8
29/08:00am 15.0 12.6 13.9 93 0.6 N 19 30 10 16 1013.6 1013.7 8.8
29/07:30am 14.5 12.8 13.5 94 0.6 N 15 26 8 14 1013.4 1013.5 8.8
29/07:00am 13.9 12.4 13.0 94 0.5 NNW 13 26 7 14 1013.0 1013.1 8.8
29/06:30am 12.5 10.5 11.4 93 0.6 NNW 13 20 7 11 1013.0 1013.1 8.8
29/06:00am 12.8 11.2 11.7 93 0.6 NNW 11 17 6 9 1012.8 1012.9 8.8
29/05:30am 13.9 11.9 12.8 93 0.6 N 15 22 8 12 1012.8 1012.9 8.8
29/05:00am 14.3 12.8 13.2 93 0.6 NNW 13 22 7 12 1012.9 1013.0 8.8
29/04:30am 14.1 12.2 13.1 94 0.6 N 15 19 8 10 1012.8 1012.9 8.8
29/04:00am 13.6 12.0 12.7 94 0.5 N 13 17 7 9 1013.0 1013.1 8.8
29/03:30am 13.4 11.7 12.3 93 0.6 NNW 13 20 7 11 1013.2 1013.3 8.8
29/03:00am 13.9 11.9 12.8 93 0.6 N 15 26 8 14 1013.3 1013.4 8.8
29/02:30am 13.4 11.3 12.3 93 0.6 N 15 20 8 11 1013.7 1013.8 8.8
29/02:00am 13.2 11.0 12.1 93 0.6 N 15 24 8 13 1013.9 1014.0 8.8
29/01:30am 13.4 10.8 12.1 92 0.7 N 17 24 9 13 1014.3 1014.5 8.8
29/01:00am 13.7 11.7 12.6 93 0.6 N 15 19 8 10 1014.5 1014.7 8.8
29/12:30am 13.1 11.3 12.0 93 0.6 N 13 19 7 10 1014.6 1014.8 8.8
29/12:00am 13.0 10.7 11.9 93 0.6 N 15 17 8 9 1014.6 1014.8 8.8
 
Date/Time
WST
Temp
°C
App
Temp
°C
Dew
Point
Rel
Hum
%
Delta-T
°C
Wind Press
QNH
hPa
Press
MSL
hPa
Rain
since 9 am
mm
Dir
 
Spd
km/h
Gust
km/h
Spd
kts
Gust
kts
28/11:30pm 12.7 10.7 11.6 93 0.6 N 13 17 7 9 1015.0 1015.2 8.8
28/11:00pm 13.1 11.3 12.0 93 0.6 N 13 19 7 10 1015.4 1015.6 8.8
28/10:30pm 13.0 11.1 11.9 93 0.6 N 13 17 7 9 1015.9 1016.0 8.8
28/10:00pm 12.5 10.5 11.4 93 0.6 N 13 17 7 9 1016.2 1016.3 8.8
28/09:30pm 13.0 11.5 11.9 93 0.6 NNE 11 15 6 8 1016.2 1016.3 8.8
28/09:00pm 12.9 11.4 11.8 93 0.6 N 11 15 6 8 1016.3 1016.4 8.8
28/08:30pm 12.7 11.4 11.4 92 0.7 N 9 13 5 7 1016.2 1016.3 8.8
28/08:00pm 12.8 11.5 11.4 91 0.7 N 9 13 5 7 1016.1 1016.2 8.8
28/07:30pm 13.1 11.9 11.5 90 0.9 N 9 9 5 5 1015.9 1016.0 8.8
28/07:00pm 13.7 12.6 11.9 89 1.0 NNW 9 11 5 6 1015.7 1015.8 8.8
28/06:30pm 14.7 15.0 12.2 85 1.4 NNW 2 9 1 5 1015.4 1015.6 8.8
28/06:00pm 15.9 16.0 12.6 81 1.8 NW 4 9 2 5 1015.2 1015.4 8.8
28/05:30pm 16.4 15.6 12.8 79 2.0 WNW 9 15 5 8 1015.0 1015.2 8.8
28/05:00pm 17.0 16.2 12.9 77 2.3 NW 9 15 5 8 1014.9 1015.1 8.8
28/04:30pm 16.7 15.8 12.5 76 2.3 WNW 9 17 5 9 1014.9 1015.1 8.8
28/04:00pm 17.0 16.1 12.7 76 2.4 WNW 9 15 5 8 1014.7 1014.9 8.8
28/03:30pm 16.8 15.6 12.9 78 2.2 WNW 11 20 6 11 1014.8 1015.0 8.8
28/03:00pm 16.8 16.0 12.9 78 2.2 W 9 19 5 10 1014.7 1014.9 8.8
28/02:30pm 16.9 15.3 12.8 77 2.3 W 13 19 7 10 1014.6 1014.8 8.8
28/02:00pm 16.5 15.7 13.0 80 2.0 WNW 9 15 5 8 1014.6 1014.8 8.8
28/01:30pm 16.9 15.9 14.7 87 1.3 W 13 20 7 11 1014.7 1014.9 8.8
28/01:00pm 15.9 15.0 13.7 87 1.3 W 11 19 6 10 1015.1 1015.3 8.6
28/12:30pm 16.1 16.2 14.5 90 0.9 SW 7 19 4 10 1015.7 1015.8 8.6
28/12:00pm 14.6 13.4 12.8 89 1.0 W 11 20 6 11 1016.0 1016.1 8.0
28/11:30am 16.0 13.6 13.7 86 1.3 N 19 32 10 17 1015.5 1015.7 3.8
28/11:00am 16.8 14.6 14.4 86 1.4 N 19 30 10 16 1015.5 1015.7 3.8
28/10:30am 15.9 13.7 14.3 90 0.9 NNW 19 32 10 17 1015.7 1015.8 3.8
28/10:00am 16.3 14.0 14.7 90 0.9 N 20 35 11 19 1015.7 1015.8 1.6
28/09:30am 15.8 13.9 14.3 91 0.9 NNW 17 33 9 18 1015.9 1016.0 0.6
28/09:00am 14.9 13.8 13.1 89 1.0 WNW 11 20 6 11 1015.8 1015.9 3.6
28/08:30am 14.8 14.0 13.0 89 1.0 NNE 9 11 5 6 1015.5 1015.7 0.0
28/08:00am 14.3 14.5 12.9 91 0.8 NNE 4 13 2 7 1015.7 1015.8 0.0
28/07:30am 13.2 11.8 12.1 93 0.6 N 11 13 6 7 1015.4 1015.6 0.0
28/07:00am 12.3 10.2 11.2 93 0.6 N 13 15 7 8 1015.1 1015.3 0.0
28/06:30am 11.9 9.6 10.6 92 0.7 N 13 22 7 12 1014.9 1015.1 0.0
28/06:00am 12.7 10.7 11.4 92 0.7 NNW 13 19 7 10 1014.8 1015.0 0.0
28/05:30am 12.8 10.8 11.5 92 0.7 NNW 13 17 7 9 1014.8 1015.0 0.0
28/05:00am 12.8 10.8 11.5 92 0.7 NNW 13 17 7 9 1014.7 1014.9 0.0
28/04:30am 13.1 11.2 11.8 92 0.7 NNW 13 19 7 10 1014.6 1014.8 0.0
28/04:00am 13.3 11.1 12.0 92 0.7 NNW 15 24 8 13 1014.5 1014.7 0.0
28/03:30am 13.4 11.2 12.1 92 0.7 NNW 15 24 8 13 1014.3 1014.5 0.0
28/03:00am 11.6 8.9 10.2 91 0.7 NNW 15 26 8 14 1014.4 1014.6 0.0
28/02:30am 10.6 7.1 8.9 89 0.9 NNW 17 26 9 14 1014.5 1014.7 0.0
28/02:00am 10.3 7.4 8.2 87 1.0 NNW 13 20 7 11 1014.5 1014.7 0.0
28/01:30am 10.3 7.0 7.9 85 1.2 NNW 15 22 8 12 1014.7 1014.9 0.0
28/01:00am 11.0 8.0 7.9 81 1.5 N 13 19 7 10 1014.5 1014.7 0.0
28/12:30am 10.8 7.6 6.9 77 1.9 N 13 19 7 10 1014.6 1014.8 0.0
28/12:00am 9.5 6.2 6.6 82 1.4 N 13 17 7 9 1014.5 1014.7 0.0
 
Date/Time
WST
Temp
°C
App
Temp
°C
Dew
Point
Rel
Hum
%
Delta-T
°C
Wind Press
QNH
hPa
Press
MSL
hPa
Rain
since 9 am
mm
Dir
 
Spd
km/h
Gust
km/h
Spd
kts
Gust
kts
27/11:30pm 9.8 6.9 6.3 79 1.6 N 11 15 6 8 1014.6 1014.8 0.0
27/11:00pm 10.5 7.3 6.8 78 1.8 N 13 17 7 9 1014.9 1015.1 0.0
27/10:30pm 11.0 7.4 6.9 76 2.0 NNE 15 19 8 10 1015.1 1015.3 0.0
27/10:00pm 12.0 8.9 7.1 72 2.4 NE 13 19 7 10 1015.3 1015.5 0.0
27/09:30pm 12.5 9.5 7.6 72 2.4 NNE 13 17 7 9 1015.5 1015.7 0.0
27/09:00pm 12.9 9.8 7.4 69 2.7 NE 13 15 7 8 1015.2 1015.4 0.0
27/08:30pm 13.7 10.3 7.5 66 3.1 ENE 15 19 8 10 1015.2 1015.4 0.0
27/08:00pm 14.2 10.9 7.9 66 3.2 ENE 15 19 8 10 1015.2 1015.4 0.0
27/07:30pm 15.2 12.7 8.0 62 3.7 ENE 11 17 6 9 1015.0 1015.2 0.0
27/07:00pm 15.7 12.7 7.7 59 4.1 ENE 13 19 7 10 1014.9 1015.1 0.0
27/06:30pm 17.0 14.5 8.2 56 4.5 NE 11 15 6 8 1014.8 1015.0 0.0
27/06:00pm 18.1 15.0 7.2 49 5.6 ENE 13 17 7 9 1014.7 1014.9 0.0
27/05:30pm 19.0 16.0 5.8 42 6.6 NE 11 17 6 9 1014.6 1014.8 0.0
27/05:00pm 20.6 17.0 5.0 36 7.7 NE 13 24 7 13 1014.5 1014.7 0.0
27/04:30pm 21.4 17.0 4.9 34 8.2 ENE 17 28 9 15 1014.5 1014.7 0.0
27/04:00pm 22.0 18.0 5.0 33 8.5 ENE 15 30 8 16 1014.6 1014.8 0.0
27/03:30pm 21.9 17.3 3.6 30 8.9 ENE 17 32 9 17 1014.7 1014.9 0.0
27/03:00pm 22.4 18.3 2.5 27 9.5 E 13 26 7 14 1014.7 1014.9 0.0
27/02:30pm 21.6 17.6 2.8 29 9.0 NE 13 22 7 12 1015.0 1015.2 0.0
27/02:00pm 22.3 18.9 3.9 30 9.0 NE 11 22 6 12 1015.3 1015.5 0.0
27/01:30pm 22.5 18.3 3.6 29 9.3 NE 15 33 8 18 1015.8 1015.9 0.0
27/01:00pm 21.7 18.1 2.9 29 9.0 NE 11 19 6 10 1016.3 1016.4 0.0
27/12:30pm 21.2 17.9 4.7 34 8.2 NE 11 17 6 9 1016.9 1017.0 0.0
27/12:00pm 20.6 16.1 4.2 34 8.0 NE 17 32 9 17 1017.4 1017.6 0.0
27/11:30am 19.7 16.5 5.0 38 7.3 ENE 11 20 6 11 1018.1 1018.3 0.0
27/11:00am 18.7 15.2 5.5 42 6.5 ENE 13 19 7 10 1018.5 1018.7 0.0
27/10:30am 17.7 15.3 5.3 44 6.1 NE 7 11 4 6 1018.8 1019.0 0.0
27/10:00am 15.9 13.0 4.9 48 5.3 ENE 9 15 5 8 1018.9 1019.1 0.0
27/09:30am 14.2 11.0 5.3 55 4.2 E 11 15 6 8 1019.2 1019.4 0.0
27/09:00am 12.0 8.3 4.7 61 3.4 ESE 13 19 7 10 1019.4 1019.6 0.0
27/08:30am 9.9 6.9 6.2 78 1.7 ESE 11 17 6 9 1019.7 1019.8 0.0
27/08:00am 6.2 2.2 4.7 90 0.7 ESE 15 19 8 10 1019.7 1019.8 0.0
27/07:30am 5.0 1.1 3.5 90 0.6 SE 13 17 7 9 1019.5 1019.7 0.0
27/07:00am 4.6 0.3 3.1 90 0.6 ESE 15 19 8 10 1019.3 1019.5 0.0
27/06:30am 4.7 0.4 3.0 89 0.7 ESE 15 19 8 10 1019.1 1019.3 0.0
27/06:00am 5.1 0.8 3.1 87 0.8 SE 15 19 8 10 1018.9 1019.1 0.0
27/05:30am 5.9 1.3 3.6 85 1.0 ESE 17 30 9 16 1018.7 1018.9 0.0
27/05:00am 6.0 1.4 3.7 85 1.0 ESE 17 22 9 12 1018.7 1018.9 0.0
27/04:30am 6.3 1.8 4.0 85 1.0 E 17 24 9 13 1018.7 1018.9 0.0
27/04:00am 6.2 1.3 4.2 87 0.9 E 19 28 10 15 1018.7 1018.9 0.0
27/03:30am 6.5 2.1 4.5 87 0.9 E 17 22 9 12 1018.9 1019.1 0.0
27/03:00am 6.4 1.6 4.6 88 0.8 E 19 24 10 13 1019.2 1019.4 0.0
27/02:30am 6.8 2.1 5.3 90 0.7 E 19 24 10 13 1019.5 1019.7 0.0
27/02:00am 6.5 1.8 5.1 91 0.6 E 19 24 10 13 1019.8 1019.9 0.0
27/01:30am 6.6 2.3 5.2 91 0.6 E 17 22 9 12 1019.9 1020.0 0.0
27/01:00am 6.7 2.4 5.2 90 0.7 E 17 22 9 12 1020.1 1020.2 0.0
27/12:30am 7.0 3.5 5.5 90 0.7 E 13 19 7 10 1020.0 1020.1 0.0
27/12:00am 7.4 4.3 5.7 89 0.8 ESE 11 15 6 8 1020.3 1020.4 0.0
 
Date/Time
WST
Temp
°C
App
Temp
°C
Dew
Point
Rel
Hum
%
Delta-T
°C
Wind Press
QNH
hPa
Press
MSL
hPa
Rain
since 9 am
mm
Dir
 
Spd
km/h
Gust
km/h
Spd
kts
Gust
kts
26/11:30pm 7.8 4.8 5.8 87 0.9 ESE 11 13 6 7 1020.4 1020.5 0.0
26/11:00pm 8.3 5.3 6.1 86 1.0 E 11 15 6 8 1020.5 1020.7 0.0

Other Formats:

Comma delimited format used in spreadsheet applications
http://www.bom.gov.au/fwo/IDW60801/IDW60801.94620.axf

JavaScript Object Notation format (JSON) in row-major order
http://www.bom.gov.au/fwo/IDW60801/IDW60801.94620.json